»·PEaware :: BADGR25 KGEG-KSEA

BADGR25 :: KGEG-KSEA

FLIGHT INFORMATION

Flight Status: Arrived
Operator: Unknown
More flights by this operator :: More flights under this callsign
Pilot: Braden S. (22228)
Aircraft: BEECH AIRCRAFT T-6A TEXAN
(TEX2)
More flights by this aircraft type
Origin: KGEG Spokane Intl
United States
Destination: KSEA Seattle-Tacoma Intl
United States
More flights between these airports :: More routes between these airports
Route: +GEG6 EPH EPH8
File this flight plan on PilotEdge
Remarks: Rqst Spokane Six departure to EPH
Altitude:
(Current/Filed)
16,000ft
Speed:
(Current/Filed)
252kts
Departed: 09-Nov-20 10:12 AM
Arrived: 09-Nov-20 11:06 AM
Distance/Time
Traveled:
193nm/0:54
Distance/Time
To Go:
Arrived

Flight Plot

Page will automatically refresh every two minutes.

Flight plan parsing failed; only flown route is shown


Map Options




Map Legend


Flown Route
Filed Route
Departure Airport
Arrival Airport
Navaid (VOR, NDB)
Fix

Horizontal Profiles

Position Reports

Time Latitude Longitude Heading Altitude Ground
Speed
09-Nov-20 09:58 47.620570 -117.526825 269 2359ft 0kts
09-Nov-20 09:59 47.620570 -117.526825 269 2359ft 0kts
09-Nov-20 10:00 47.620570 -117.526825 269 2359ft 0kts
09-Nov-20 10:01 47.620570 -117.526825 269 2359ft 0kts
09-Nov-20 10:02 47.620570 -117.526825 269 2359ft 0kts
09-Nov-20 10:03 47.620903 -117.528352 296 2358ft 15kts
09-Nov-20 10:04 47.624962 -117.524217 44 2347ft 23kts
09-Nov-20 10:05 47.629599 -117.517234 45 2326ft 6kts
09-Nov-20 10:06 47.630328 -117.517190 316 2324ft 0kts
09-Nov-20 10:07 47.630328 -117.517190 316 2324ft 0kts
09-Nov-20 10:08 47.630328 -117.517190 316 2323ft 0kts
09-Nov-20 10:09 47.630328 -117.517190 316 2323ft 0kts
09-Nov-20 10:10 47.630812 -117.518856 226 2326ft 19kts
09-Nov-20 10:11 47.606197 -117.556205 224 3505ft 184kts
09-Nov-20 10:12 47.572121 -117.608096 226 6809ft 190kts
09-Nov-20 10:13 47.537120 -117.662530 225 10378ft 186kts
09-Nov-20 10:14 47.497396 -117.723722 233 12182ft 243kts
09-Nov-20 10:15 47.488031 -117.809005 262 15867ft 215kts
09-Nov-20 10:16 47.481473 -117.914454 264 16046ft 286kts
09-Nov-20 10:17 47.471803 -118.032623 262 15977ft 280kts
09-Nov-20 10:18 47.461162 -118.143433 264 15970ft 265kts
09-Nov-20 10:19 47.453798 -118.251548 265 16013ft 265kts
09-Nov-20 10:20 47.444894 -118.359902 263 15908ft 266kts
09-Nov-20 10:21 47.436775 -118.467748 265 15974ft 265kts
09-Nov-20 10:22 47.426368 -118.571287 266 15981ft 258kts
09-Nov-20 10:23 47.421649 -118.678160 266 16113ft 265kts
09-Nov-20 10:24 47.414737 -118.788350 262 16004ft 272kts
09-Nov-20 10:25 47.407762 -118.899405 265 15941ft 273kts
09-Nov-20 10:26 47.402513 -119.010236 265 16028ft 269kts
09-Nov-20 10:27 47.394386 -119.120306 263 16022ft 271kts
09-Nov-20 10:28 47.385857 -119.231237 264 15970ft 271kts
09-Nov-20 10:29 47.378321 -119.341363 265 16095ft 267kts
09-Nov-20 10:30 47.381306 -119.451138 284 16115ft 267kts
09-Nov-20 10:31 47.399011 -119.558962 284 16033ft 271kts
09-Nov-20 10:32 47.418622 -119.666361 286 16038ft 272kts
09-Nov-20 10:33 47.439905 -119.773220 286 16029ft 270kts
09-Nov-20 10:34 47.459936 -119.880506 284 15993ft 272kts
09-Nov-20 10:35 47.479725 -119.992843 286 15948ft 298kts
09-Nov-20 10:36 47.503813 -120.110505 287 16081ft 298kts
09-Nov-20 10:37 47.527058 -120.229382 285 15957ft 304kts
09-Nov-20 10:38 47.551479 -120.347856 286 16043ft 301kts
09-Nov-20 10:39 47.573132 -120.468539 284 15873ft 305kts
09-Nov-20 10:40 47.596148 -120.588277 287 15950ft 300kts
09-Nov-20 10:41 47.619889 -120.707176 285 16012ft 299kts
09-Nov-20 10:42 47.642952 -120.826588 285 15910ft 307kts
09-Nov-20 10:43 47.666827 -120.945589 286 16125ft 300kts
09-Nov-20 10:44 47.690698 -121.065376 287 15959ft 305kts
09-Nov-20 10:45 47.710813 -121.187362 281 15974ft 298kts
09-Nov-20 10:47 47.728692 -121.309430 282 15885ft 303kts
09-Nov-20 10:48 47.738622 -121.433363 283 14390ft 302kts
09-Nov-20 10:49 47.769990 -121.543963 295 11875ft 278kts
09-Nov-20 10:50 47.802728 -121.644515 284 9720ft 251kts
09-Nov-20 10:51 47.801596 -121.738134 264 10000ft 221kts
09-Nov-20 10:52 47.796805 -121.829888 265 8812ft 230kts
09-Nov-20 10:53 47.793366 -121.927267 267 6584ft 239kts
09-Nov-20 10:54 47.790570 -122.022993 269 4916ft 215kts
09-Nov-20 10:55 47.787205 -122.114295 265 3533ft 227kts
09-Nov-20 10:56 47.782389 -122.199665 264 2853ft 184kts
09-Nov-20 10:57 47.769917 -122.259499 205 2920ft 155kts
09-Nov-20 10:58 47.731367 -122.288563 208 2998ft 158kts
09-Nov-20 10:59 47.688290 -122.306548 184 2966ft 168kts
09-Nov-20 11:00 47.641237 -122.305800 181 3025ft 165kts
09-Nov-20 11:01 47.596858 -122.306732 178 2875ft 150kts
09-Nov-20 11:02 47.556579 -122.307315 177 2419ft 128kts
09-Nov-20 11:03 47.521702 -122.307559 178 1582ft 118kts
09-Nov-20 11:04 47.489658 -122.307428 180 967ft 112kts
09-Nov-20 11:04 47.463986 -122.307780 179 473ft 110kts
09-Nov-20 11:06 47.450124 -122.307108 94 406ft 0kts
09-Nov-20 11:06 47.450123 -122.307071 92 406ft 0kts
09-Nov-20 11:08 47.450101 -122.304945 92 407ft 14kts
09-Nov-20 11:08 47.450102 -122.304567 87 407ft 0kts

Navigation Log

Ident Type
Flight plan parsing failed, navigation log unavailable